Time;durP1;ratioP1;P1;durP2;ratioP2;P2;SDS_P1;SDS_P2;PMS_P1;PMS_P2;Temp;Humidity;BMP_temperature;BMP_pressure;BME280_temperature;BME280_humidity;BME280_pressure;Samples;Min_cycle;Max_cycle;Signal;HPM_P1;HPM_P2
2022/12/24 00:02:47;;;;;;;2.67;1.33;;;;;;;-144.32;100.00;68061.97;10354050;28;20145;-75
2022/12/24 00:07:51;;;;;;;2.38;1.50;;;;;;;-144.32;100.00;68061.97;10347886;28;20129;-76
2022/12/24 00:12:51;;;;;;;5.47;1.80;;;;;;;-144.32;100.00;68061.97;10347573;28;20050;-75
2022/12/24 00:17:52;;;;;;;4.13;1.52;;;;;;;-144.32;100.00;68061.97;10351292;28;20120;-77
2022/12/24 00:22:55;;;;;;;5.18;1.60;;;;;;;-144.32;100.00;68061.97;10346585;28;20050;-76
2022/12/24 00:27:57;;;;;;;3.72;1.60;;;;;;;-144.32;100.00;68061.97;10355572;28;20042;-76
2022/12/24 00:32:58;;;;;;;4.05;1.30;;;;;;;-144.32;100.00;68061.97;10355598;28;20670;-75
2022/12/24 00:37:59;;;;;;;5.45;2.00;;;;;;;-144.32;100.00;68061.97;10347765;28;20060;-77
2022/12/24 00:43:00;;;;;;;5.57;1.95;;;;;;;-144.32;100.00;68061.97;10357704;28;20054;-75
2022/12/24 00:48:00;;;;;;;6.18;1.95;;;;;;;-144.32;100.00;68061.97;10360297;28;20092;-76
2022/12/24 00:53:01;;;;;;;5.93;1.77;;;;;;;-144.32;100.00;68061.97;10350101;28;20068;-76
2022/12/24 00:58:02;;;;;;;6.00;1.70;;;;;;;-144.32;100.00;68061.97;10359672;28;20035;-76
2022/12/24 01:03:03;;;;;;;5.70;2.33;;;;;;;-144.32;100.00;68061.97;10353092;28;20050;-75
2022/12/24 01:08:04;;;;;;;4.00;1.70;;;;;;;-144.32;100.00;68061.97;10359767;28;20049;-75
2022/12/24 01:13:04;;;;;;;4.43;1.77;;;;;;;-144.32;100.00;68061.97;10364214;28;20049;-75
2022/12/24 01:18:05;;;;;;;6.00;1.88;;;;;;;-144.32;100.00;68061.97;10365530;28;20498;-78
2022/12/24 01:23:06;;;;;;;5.50;1.73;;;;;;;-144.32;100.00;68061.97;10366555;28;20050;-76
2022/12/24 01:28:06;;;;;;;5.22;1.95;;;;;;;-144.32;100.00;68061.97;10357598;28;20153;-76
2022/12/24 01:33:07;;;;;;;6.68;2.28;;;;;;;-144.32;100.00;68061.97;10351324;28;20050;-77
2022/12/24 01:38:11;;;;;;;5.95;2.08;;;;;;;-144.32;100.00;68061.97;10368189;28;20046;-78
2022/12/24 01:43:22;;;;;;;7.40;2.20;;;;;;;-144.32;100.00;68061.97;10361617;28;20053;-75
2022/12/24 01:48:29;;;;;;;8.05;2.45;;;;;;;-144.32;100.00;68061.97;10360096;28;20529;-76
2022/12/24 01:53:30;;;;;;;5.72;2.10;;;;;;;-144.32;100.00;68061.97;10358186;28;20045;-75
2022/12/24 01:58:34;;;;;;;5.57;1.90;;;;;;;-144.32;100.00;68061.97;10360130;28;20068;-76
2022/12/24 02:03:35;;;;;;;8.35;2.03;;;;;;;-144.32;100.00;68061.97;10362965;28;20057;-76
2022/12/24 02:08:41;;;;;;;5.30;2.00;;;;;;;-144.32;100.00;68061.97;10356465;28;20072;-76
2022/12/24 02:13:54;;;;;;;9.88;2.28;;;;;;;-144.32;100.00;68061.97;10352509;28;20474;-75
2022/12/24 02:19:03;;;;;;;9.40;2.30;;;;;;;-144.32;100.00;68061.97;10352475;28;20038;-74
2022/12/24 02:24:25;;;;;;;6.43;2.70;;;;;;;-144.32;100.00;68061.97;10353688;28;20068;-75
2022/12/24 02:29:50;;;;;;;7.65;2.30;;;;;;;-144.32;100.00;68061.97;10342941;28;20080;-76
2022/12/24 02:34:57;;;;;;;6.18;2.20;;;;;;;-144.32;100.00;68061.97;10351337;28;20053;-76
2022/12/24 02:40:06;;;;;;;4.10;1.90;;;;;;;-144.32;100.00;68061.97;10357516;28;20068;-76
2022/12/24 02:45:19;;;;;;;8.57;2.38;;;;;;;-144.32;100.00;68061.97;10352602;28;20129;-75
2022/12/24 02:50:20;;;;;;;8.15;2.40;;;;;;;-144.32;100.00;68061.97;10354197;28;20099;-76
2022/12/24 02:55:47;;;;;;;12.50;2.75;;;;;;;-144.32;100.00;68061.97;10356465;28;20092;-76
2022/12/24 03:01:14;;;;;;;8.88;2.42;;;;;;;-144.32;100.00;68061.97;10350275;28;20129;-75
2022/12/24 03:06:22;;;;;;;6.97;2.30;;;;;;;-144.32;100.00;68061.97;10356906;28;20069;-76
2022/12/24 03:11:23;;;;;;;6.28;2.28;;;;;;;-144.32;100.00;68061.97;10347065;28;20042;-74
2022/12/24 03:16:26;;;;;;;13.02;2.20;;;;;;;-144.32;100.00;68061.97;10347839;28;20069;-76
2022/12/24 03:21:34;;;;;;;9.27;2.38;;;;;;;-144.32;100.00;68061.97;10355505;28;20097;-76
2022/12/24 03:26:36;;;;;;;7.53;2.10;;;;;;;-144.32;100.00;68061.97;10349425;28;20129;-77
2022/12/24 03:31:51;;;;;;;5.85;2.35;;;;;;;-144.32;100.00;68061.97;10342444;28;20498;-76
2022/12/24 03:36:52;;;;;;;10.85;2.88;;;;;;;-144.32;100.00;68061.97;10343797;28;20169;-75
2022/12/24 03:41:52;;;;;;;7.65;2.47;;;;;;;-144.32;100.00;68061.97;10352463;28;20068;-75
2022/12/24 03:46:53;;;;;;;8.07;2.47;;;;;;;-144.32;100.00;68061.97;10352073;28;20137;-78
2022/12/24 03:51:53;;;;;;;5.25;2.40;;;;;;;-144.32;100.00;68061.97;10349972;28;20134;-74
2022/12/24 03:56:54;;;;;;;11.27;2.13;;;;;;;-144.32;100.00;68061.97;10349165;28;20101;-74
2022/12/24 04:01:54;;;;;;;11.18;2.53;;;;;;;-144.32;100.00;68061.97;10350006;28;20053;-74
2022/12/24 04:06:55;;;;;;;4.80;2.00;;;;;;;-144.32;100.00;68061.97;10353430;28;20038;-75
2022/12/24 04:11:55;;;;;;;6.78;1.98;;;;;;;-144.32;100.00;68061.97;10348164;28;20048;-74
2022/12/24 04:16:56;;;;;;;9.45;2.63;;;;;;;-144.32;100.00;68061.97;10336225;28;20612;-76
2022/12/24 04:21:56;;;;;;;6.78;1.92;;;;;;;-144.32;100.00;68061.97;10343276;28;20050;-75
2022/12/24 04:26:57;;;;;;;6.20;2.30;;;;;;;-144.32;100.00;68061.97;10356239;28;20121;-75
2022/12/24 04:31:57;;;;;;;7.00;2.40;;;;;;;-144.32;100.00;68061.97;10351435;28;20482;-75
2022/12/24 04:36:58;;;;;;;7.40;2.47;;;;;;;-144.32;100.00;68061.97;10354327;28;20047;-76
2022/12/24 04:41:58;;;;;;;9.13;3.40;;;;;;;-144.32;100.00;68061.97;10343221;28;20045;-76
2022/12/24 04:46:59;;;;;;;9.68;3.97;;;;;;;-144.32;100.00;68061.97;10351866;28;20042;-76
2022/12/24 04:51:59;;;;;;;6.38;2.53;;;;;;;-144.32;100.00;68061.97;10351110;28;20041;-76
2022/12/24 04:57:00;;;;;;;5.78;1.70;;;;;;;-144.32;100.00;68061.97;10344433;28;20469;-76
2022/12/24 05:02:01;;;;;;;4.55;2.10;;;;;;;-144.32;100.00;68061.97;10342059;28;20042;-77
2022/12/24 05:07:03;;;;;;;6.63;2.00;;;;;;;-144.32;100.00;68061.97;10348928;28;20042;-75
2022/12/24 05:12:03;;;;;;;5.72;2.00;;;;;;;-144.32;100.00;68061.97;10352484;28;20446;-75
2022/12/24 05:17:04;;;;;;;5.38;1.80;;;;;;;-144.32;100.00;68061.97;10348549;28;20042;-75
2022/12/24 05:27:24;;;;;;;5.10;2.00;;;;;;;-144.32;100.00;68061.97;10345548;28;20080;-75
2022/12/24 05:32:25;;;;;;;10.60;1.85;;;;;;;-144.32;100.00;68061.97;10351245;28;20546;-75
2022/12/24 05:37:25;;;;;;;10.32;1.80;;;;;;;-144.32;100.00;68061.97;10348703;28;20397;-75
2022/12/24 05:42:26;;;;;;;7.75;1.92;;;;;;;-144.32;100.00;68061.97;10348584;28;20049;-77
2022/12/24 05:47:26;;;;;;;6.20;1.83;;;;;;;-144.32;100.00;68061.97;10351894;28;20049;-76
2022/12/24 05:52:27;;;;;;;4.35;1.77;;;;;;;-144.32;100.00;68061.97;10357085;28;20057;-78
2022/12/24 05:57:28;;;;;;;6.15;1.75;;;;;;;-144.32;100.00;68061.97;10364712;28;20514;-76
2022/12/24 06:02:29;;;;;;;4.22;1.70;;;;;;;-144.32;100.00;68061.97;10357127;28;20053;-75
2022/12/24 06:07:29;;;;;;;5.80;2.10;;;;;;;-144.32;100.00;68061.97;10352425;28;20787;-75
2022/12/24 06:12:30;;;;;;;11.35;2.70;;;;;;;-144.32;100.00;68061.97;10350278;28;20763;-75
2022/12/24 06:17:30;;;;;;;7.00;1.85;;;;;;;-144.32;100.00;68061.97;10360340;28;20042;-77
2022/12/24 06:22:31;;;;;;;11.57;2.00;;;;;;;-144.32;100.00;68061.97;10358065;28;20034;-76
2022/12/24 06:27:32;;;;;;;6.40;2.10;;;;;;;-144.32;100.00;68061.97;10344410;28;20490;-75
2022/12/24 06:32:33;;;;;;;7.30;2.38;;;;;;;-144.32;100.00;68061.97;10358512;28;20490;-74
2022/12/24 06:37:33;;;;;;;12.30;2.63;;;;;;;-144.32;100.00;68061.97;10350302;28;20042;-75
2022/12/24 06:42:34;;;;;;;10.93;2.20;;;;;;;-144.32;100.00;68061.97;10355629;28;20057;-75
2022/12/24 06:47:34;;;;;;;5.88;2.35;;;;;;;-144.32;100.00;68061.97;10351889;28;20053;-75
2022/12/24 06:52:35;;;;;;;6.07;2.30;;;;;;;-144.32;100.00;68061.97;10346216;28;20046;-76
2022/12/24 06:57:36;;;;;;;9.50;2.40;;;;;;;-144.32;100.00;68061.97;10343060;28;20046;-75
2022/12/24 07:02:40;;;;;;;8.20;2.35;;;;;;;-144.32;100.00;68061.97;10359524;28;20049;-75
2022/12/24 07:07:43;;;;;;;10.38;2.05;;;;;;;-144.32;100.00;68061.97;10365707;28;20489;-77
2022/12/24 07:12:45;;;;;;;8.73;2.40;;;;;;;-144.32;100.00;68061.97;10368275;28;20390;-76
2022/12/24 07:17:45;;;;;;;13.55;3.15;;;;;;;-144.32;100.00;68061.97;10375575;28;20121;-79
2022/12/24 07:22:46;;;;;;;8.63;2.42;;;;;;;-144.32;100.00;68061.97;10361700;28;20056;-75
2022/12/24 07:27:47;;;;;;;10.40;3.05;;;;;;;-144.32;100.00;68061.97;10373559;28;20038;-76
2022/12/24 07:32:47;;;;;;;9.20;2.58;;;;;;;-144.32;100.00;68061.97;10387319;28;20391;-77
2022/12/24 07:37:48;;;;;;;10.77;2.88;;;;;;;-144.32;100.00;68061.97;10380561;28;20049;-79
2022/12/24 07:42:48;;;;;;;11.18;2.67;;;;;;;-144.32;100.00;68061.97;10381674;28;20050;-75
2022/12/24 07:47:50;;;;;;;11.10;3.20;;;;;;;-144.32;100.00;68061.97;10369595;28;20048;-78
2022/12/24 07:52:52;;;;;;;10.70;2.92;;;;;;;-144.32;100.00;68061.97;10360751;28;20065;-76
2022/12/24 07:57:52;;;;;;;12.90;3.40;;;;;;;-144.32;100.00;68061.97;10372751;28;20092;-76
2022/12/24 08:02:53;;;;;;;11.75;4.75;;;;;;;-144.32;100.00;68061.97;10364304;28;20053;-80
2022/12/24 08:07:54;;;;;;;12.95;3.05;;;;;;;-144.32;100.00;68061.97;10363972;28;20044;-77
2022/12/24 08:12:54;;;;;;;9.07;2.85;;;;;;;-144.32;100.00;68061.97;10358891;28;20037;-78
2022/12/24 08:17:55;;;;;;;10.80;2.83;;;;;;;-144.32;100.00;68061.97;10370070;28;20045;-79
2022/12/24 08:22:56;;;;;;;10.15;3.65;;;;;;;-144.32;100.00;68061.97;10361928;28;20402;-77
2022/12/24 08:27:56;;;;;;;14.50;3.83;;;;;;;-144.32;100.00;68061.97;10364251;28;20049;-76
2022/12/24 08:32:57;;;;;;;8.15;3.38;;;;;;;-144.32;100.00;68061.97;10372831;28;20037;-77
2022/12/24 08:37:58;;;;;;;9.95;3.67;;;;;;;-144.32;100.00;68061.97;10400700;28;20128;-80
2022/12/24 08:43:00;;;;;;;11.15;3.47;;;;;;;-144.32;100.00;68061.97;10376919;28;20689;-76
2022/12/24 08:48:01;;;;;;;7.03;2.97;;;;;;;-144.32;100.00;68061.97;10370409;28;20495;-78
2022/12/24 08:53:02;;;;;;;13.48;3.33;;;;;;;-144.32;100.00;68061.97;10373079;28;20049;-78
2022/12/24 08:58:02;;;;;;;9.20;3.78;;;;;;;-144.32;100.00;68061.97;10352474;28;20048;-76
2022/12/24 09:03:03;;;;;;;9.70;3.35;;;;;;;-144.32;100.00;68061.97;10377203;28;20092;-79
2022/12/24 09:08:03;;;;;;;12.35;3.65;;;;;;;-144.32;100.00;68061.97;10373991;28;20038;-78
2022/12/24 09:13:04;;;;;;;9.52;3.17;;;;;;;-144.32;100.00;68061.97;10347863;28;20050;-78
2022/12/24 09:18:04;;;;;;;11.82;3.78;;;;;;;-144.32;100.00;68061.97;10355350;28;20122;-76
2022/12/24 09:23:05;;;;;;;12.65;3.70;;;;;;;-144.32;100.00;68061.97;10359385;28;20042;-77
2022/12/24 09:28:05;;;;;;;13.18;3.25;;;;;;;-144.32;100.00;68061.97;10354952;28;20416;-77
2022/12/24 09:33:06;;;;;;;12.30;3.58;;;;;;;-144.32;100.00;68061.97;10370049;28;20133;-77
2022/12/24 09:38:07;;;;;;;13.68;3.72;;;;;;;-144.32;100.00;68061.97;10362164;28;20478;-77
2022/12/24 09:43:19;;;;;;;9.45;3.00;;;;;;;-144.32;100.00;68061.97;10356903;28;20085;-78
2022/12/24 09:48:23;;;;;;;16.88;3.97;;;;;;;-144.32;100.00;68061.97;10354423;28;20128;-76
2022/12/24 09:53:36;;;;;;;9.85;3.25;;;;;;;-144.32;100.00;68061.97;10349318;28;20107;-76
2022/12/24 09:58:41;;;;;;;9.65;3.10;;;;;;;-144.32;100.00;68061.97;10356385;28;20046;-76
2022/12/24 10:03:42;;;;;;;11.40;3.53;;;;;;;-144.32;100.00;68061.97;10359191;28;20159;-76
2022/12/24 10:09:01;;;;;;;12.25;3.85;;;;;;;-144.32;100.00;68061.97;10386314;28;20054;-78
2022/12/24 10:14:41;;;;;;;9.68;2.75;;;;;;;-144.32;100.00;68061.97;10355747;28;20568;-78
2022/12/24 10:20:00;;;;;;;13.18;3.22;;;;;;;-144.32;100.00;68061.97;10355412;28;20046;-79
2022/12/24 10:25:00;;;;;;;13.35;3.53;;;;;;;-144.32;100.00;68061.97;10339340;28;20141;-77
2022/12/24 10:30:11;;;;;;;11.82;3.55;;;;;;;-144.32;100.00;68061.97;10354027;28;20052;-78
2022/12/24 10:35:18;;;;;;;10.98;3.85;;;;;;;-144.32;100.00;68061.97;10351300;28;20124;-77
2022/12/24 10:40:41;;;;;;;9.68;2.90;;;;;;;-144.32;100.00;68061.97;10353668;28;20490;-76
2022/12/24 10:45:46;;;;;;;13.52;3.35;;;;;;;-144.32;100.00;68061.97;10351756;28;20049;-77
2022/12/24 10:51:17;;;;;;;9.20;3.42;;;;;;;-144.32;100.00;68061.97;10360963;28;20042;-76
2022/12/24 10:56:19;;;;;;;12.98;3.45;;;;;;;-144.32;100.00;68061.97;10356951;28;20414;-76
2022/12/24 11:01:40;;;;;;;8.55;2.83;;;;;;;-144.32;100.00;68061.97;10347828;28;20049;-76
2022/12/24 11:06:56;;;;;;;12.68;3.38;;;;;;;-144.32;100.00;68061.97;10358334;28;20077;-76
2022/12/24 11:11:59;;;;;;;12.32;3.38;;;;;;;-144.32;100.00;68061.97;10350281;28;20453;-76
2022/12/24 11:17:00;;;;;;;8.07;3.10;;;;;;;-144.32;100.00;68061.97;10349569;28;20050;-80
2022/12/24 11:22:21;;;;;;;14.88;3.15;;;;;;;-144.32;100.00;68061.97;10349467;28;20045;-77
2022/12/24 11:27:26;;;;;;;15.25;3.92;;;;;;;-144.32;100.00;68061.97;10356897;28;20070;-76
2022/12/24 11:32:27;;;;;;;11.23;3.63;;;;;;;-144.32;100.00;68061.97;10349100;28;20053;-76
2022/12/24 11:37:28;;;;;;;10.70;3.10;;;;;;;-144.32;100.00;68061.97;10347401;28;20046;-77
2022/12/24 11:42:39;;;;;;;10.85;3.55;;;;;;;-144.32;100.00;68061.97;10365972;28;20078;-76
2022/12/24 11:47:40;;;;;;;12.55;4.50;;;;;;;-144.32;100.00;68061.97;10372565;28;20050;-75
2022/12/24 11:52:42;;;;;;;14.98;5.45;;;;;;;-144.32;100.00;68061.97;10371755;28;20179;-76
2022/12/24 11:58:33;;;;;;;12.38;3.45;;;;;;;-144.32;100.00;68061.97;10349638;28;20045;-76
2022/12/24 12:03:47;;;;;;;7.53;2.92;;;;;;;-144.32;100.00;68061.97;10312074;28;20108;-75
2022/12/24 12:08:49;;;;;;;;;;;;;;;-144.32;100.00;68061.97;10353224;28;20046;-76
2022/12/24 12:13:51;;;;;;;14.23;4.75;;;;;;;-144.32;100.00;68061.97;10346778;28;20023;-77
2022/12/24 12:19:02;;;;;;;11.55;3.60;;;;;;;-144.32;100.00;68061.97;10367091;28;20062;-78
2022/12/24 12:24:11;;;;;;;10.15;3.63;;;;;;;-144.32;100.00;68061.97;10409624;28;20050;-79
2022/12/24 12:29:17;;;;;;;14.68;3.90;;;;;;;-144.32;100.00;68061.97;10394705;28;20066;-79
2022/12/24 12:34:24;;;;;;;10.05;3.08;;;;;;;-144.32;100.00;68061.97;10350156;28;20399;-78
2022/12/24 12:39:25;;;;;;;10.23;4.53;;;;;;;-144.32;100.00;68061.97;10358040;28;20066;-77
2022/12/24 12:44:35;;;;;;;11.07;3.53;;;;;;;-144.32;100.00;68061.97;10358165;28;20136;-78
2022/12/24 12:50:11;;;;;;;13.25;3.20;;;;;;;-144.32;100.00;68061.97;10362960;28;20046;-79
2022/12/24 12:55:49;;;;;;;12.70;3.78;;;;;;;-144.32;100.00;68061.97;10373718;28;20042;-77
2022/12/24 13:00:53;;;;;;;11.32;2.90;;;;;;;-144.32;100.00;68061.97;10342118;28;20125;-79
2022/12/24 13:06:40;;;;;;;9.73;3.22;;;;;;;-144.32;100.00;68061.97;10349094;28;20076;-83
2022/12/24 13:11:59;;;;;;;15.55;3.38;;;;;;;-144.32;100.00;68061.97;10342538;28;20735;-80
2022/12/24 13:17:50;;;;;;;10.48;3.25;;;;;;;-144.32;100.00;68061.97;10350494;28;20398;-77
2022/12/24 13:23:10;;;;;;;11.43;2.80;;;;;;;-144.32;100.00;68061.97;10322442;28;20165;-75
2022/12/24 13:28:22;;;;;;;14.20;3.90;;;;;;;-144.32;100.00;68061.97;10342798;28;20406;-76
2022/12/24 13:33:32;;;;;;;11.75;3.10;;;;;;;-144.32;100.00;68061.97;10345364;28;20065;-76
2022/12/24 13:38:53;;;;;;;12.30;3.58;;;;;;;-144.32;100.00;68061.97;10355835;28;20058;-77
2022/12/24 13:44:06;;;;;;;11.00;2.92;;;;;;;-144.32;100.00;68061.97;10355919;28;20481;-77
2022/12/24 13:49:14;;;;;;;12.37;3.70;;;;;;;-144.32;100.00;68061.97;10363480;28;20041;-76
2022/12/24 13:54:20;;;;;;;11.13;3.38;;;;;;;-144.32;100.00;68061.97;10351377;28;20062;-80
2022/12/24 13:59:36;;;;;;;10.15;3.35;;;;;;;-144.32;100.00;68061.97;10351391;28;20043;-78
2022/12/24 14:04:41;;;;;;;9.07;3.33;;;;;;;-144.32;100.00;68061.97;10347772;28;20037;-76
2022/12/24 14:09:48;;;;;;;9.45;3.65;;;;;;;-144.32;100.00;68061.97;10355185;28;20054;-75
2022/12/24 14:14:49;;;;;;;12.52;3.88;;;;;;;-144.32;100.00;68061.97;10355016;28;20793;-76
2022/12/24 14:19:59;;;;;;;11.13;2.95;;;;;;;-144.32;100.00;68061.97;10393610;28;20087;-75
2022/12/24 14:25:10;;;;;;;11.55;3.25;;;;;;;-144.32;100.00;68061.97;10365591;28;20045;-77
2022/12/24 14:30:29;;;;;;;11.15;3.20;;;;;;;-144.32;100.00;68061.97;10361256;28;20137;-78
2022/12/24 14:35:37;;;;;;;11.20;2.95;;;;;;;-144.32;100.00;68061.97;10380784;28;20038;-77
2022/12/24 14:40:54;;;;;;;10.13;3.17;;;;;;;-144.32;100.00;68061.97;10359920;28;20096;-77
2022/12/24 14:46:08;;;;;;;10.98;3.47;;;;;;;-144.32;100.00;68061.97;10349093;28;20050;-79
2022/12/24 14:51:19;;;;;;;7.63;2.97;;;;;;;-144.32;100.00;68061.97;10348943;28;20065;-78
2022/12/24 14:56:21;;;;;;;8.75;2.47;;;;;;;-144.32;100.00;68061.97;10348672;28;20038;-78
2022/12/24 15:01:28;;;;;;;9.38;3.33;;;;;;;-144.32;100.00;68061.97;10353658;28;20458;-79
2022/12/24 15:06:32;;;;;;;9.85;3.70;;;;;;;-144.32;100.00;68061.97;10369994;28;20538;-76
2022/12/24 15:11:33;;;;;;;10.20;3.53;;;;;;;-144.32;100.00;68061.97;10350365;28;20035;-78
2022/12/24 15:16:37;;;;;;;14.00;3.65;;;;;;;-144.32;100.00;68061.97;10351355;28;20046;-77
2022/12/24 15:21:42;;;;;;;8.50;3.47;;;;;;;-144.32;100.00;68061.97;10353315;28;20085;-77
2022/12/24 15:26:43;;;;;;;12.32;3.40;;;;;;;-144.32;100.00;68061.97;10352472;28;20136;-76
2022/12/24 15:31:44;;;;;;;12.55;3.13;;;;;;;-144.32;100.00;68061.97;10360483;28;20038;-77
2022/12/24 15:36:45;;;;;;;10.55;3.80;;;;;;;-144.32;100.00;68061.97;10376813;28;20044;-78
2022/12/24 15:47:16;;;;;;;12.23;3.75;;;;;;;-144.32;100.00;68061.97;10345884;28;20041;-77
2022/12/24 15:52:19;;;;;;;10.68;3.40;;;;;;;-144.32;100.00;68061.97;10357066;28;20103;-75
2022/12/24 15:57:28;;;;;;;12.98;3.85;;;;;;;-144.32;100.00;68061.97;10345005;28;20418;-78
2022/12/24 16:02:31;;;;;;;11.77;4.05;;;;;;;-144.32;100.00;68061.97;10344713;28;20490;-77
2022/12/24 16:08:05;;;;;;;11.82;5.30;;;;;;;-144.32;100.00;68061.97;10353773;28;20050;-79
2022/12/24 16:12:52;;;;;;;18.77;8.73;;;;;;;-144.32;100.00;68061.97;10351735;28;20061;-76
2022/12/24 16:17:53;;;;;;;14.13;6.60;;;;;;;-144.32;100.00;68061.97;10348230;28;20042;-76
2022/12/24 16:22:54;;;;;;;12.95;6.20;;;;;;;-144.32;100.00;68061.97;10355798;28;20052;-76
2022/12/24 16:27:54;;;;;;;16.50;6.82;;;;;;;-144.32;100.00;68061.97;10342346;28;20054;-75
2022/12/24 16:32:55;;;;;;;13.43;6.43;;;;;;;-144.32;100.00;68061.97;10347233;28;20045;-76
2022/12/24 16:37:55;;;;;;;21.88;12.52;;;;;;;-144.32;100.00;68061.97;10351159;28;20098;-77
2022/12/24 16:48:23;;;;;;;23.73;16.88;;;;;;;-144.32;100.00;68061.97;10341178;28;20068;-77
2022/12/24 16:53:24;;;;;;;27.80;16.75;;;;;;;-144.32;100.00;68061.97;10346764;28;20033;-76
2022/12/24 16:58:24;;;;;;;22.95;13.05;;;;;;;-144.32;100.00;68061.97;10339690;28;20034;-77
2022/12/24 17:03:25;;;;;;;14.25;9.23;;;;;;;-144.32;100.00;68061.97;10344880;28;20072;-77
2022/12/24 17:08:25;;;;;;;19.27;9.15;;;;;;;-144.32;100.00;68061.97;10349240;28;20058;-76
2022/12/24 17:13:26;;;;;;;15.93;9.00;;;;;;;-144.32;100.00;68061.97;10392040;28;20037;-78
2022/12/24 17:18:27;;;;;;;22.98;10.18;;;;;;;-144.32;100.00;68061.97;10346892;28;20034;-79
2022/12/24 17:23:28;;;;;;;24.20;10.68;;;;;;;-144.32;100.00;68061.97;10341535;28;20814;-78
2022/12/24 17:28:28;;;;;;;17.20;9.52;;;;;;;-144.32;100.00;68061.97;10345794;28;20133;-79
2022/12/24 17:33:29;;;;;;;18.65;11.02;;;;;;;-144.32;100.00;68061.97;10346998;28;20413;-79
2022/12/24 17:38:30;;;;;;;25.25;12.45;;;;;;;-144.32;100.00;68061.97;10357419;28;20145;-78
2022/12/24 17:43:32;;;;;;;19.63;11.57;;;;;;;-144.32;100.00;68061.97;10358236;28;20068;-79
2022/12/24 17:48:33;;;;;;;21.85;13.00;;;;;;;-144.32;100.00;68061.97;10347968;28;20125;-82
2022/12/24 17:53:34;;;;;;;24.30;11.52;;;;;;;-144.32;100.00;68061.97;10348753;28;20064;-76
2022/12/24 17:58:35;;;;;;;27.90;13.70;;;;;;;-144.32;100.00;68061.97;10356273;28;20165;-77
2022/12/24 18:03:36;;;;;;;22.92;11.40;;;;;;;-144.32;100.00;68061.97;10356753;28;20137;-78
2022/12/24 18:08:38;;;;;;;22.10;10.23;;;;;;;-144.32;100.00;68061.97;10353774;28;20050;-78
2022/12/24 18:13:40;;;;;;;22.20;9.48;;;;;;;-144.32;100.00;68061.97;10348273;28;20175;-77
2022/12/24 18:18:40;;;;;;;17.80;8.25;;;;;;;-144.32;100.00;68061.97;10343090;28;20050;-78
2022/12/24 18:23:43;;;;;;;16.00;7.68;;;;;;;-144.32;100.00;68061.97;10374136;28;20045;-76
2022/12/24 18:28:44;;;;;;;18.40;7.22;;;;;;;-144.32;100.00;68061.97;10367490;28;20042;-74
2022/12/24 18:33:46;;;;;;;18.33;7.25;;;;;;;-144.32;100.00;68061.97;10369495;28;20041;-75
2022/12/24 18:38:47;;;;;;;;;;;;;;;-144.32;100.00;68061.97;10363048;28;20558;-76
2022/12/24 18:43:49;;;;;;;17.25;6.38;;;;;;;-144.32;100.00;68061.97;10372990;28;19929;-77
2022/12/24 18:48:50;;;;;;;16.38;6.70;;;;;;;-144.32;100.00;68061.97;10362022;28;20057;-76
2022/12/24 18:53:52;;;;;;;13.23;6.43;;;;;;;-144.32;100.00;68061.97;10373860;28;20130;-78
2022/12/24 18:58:59;;;;;;;12.27;6.10;;;;;;;-144.32;100.00;68061.97;10366176;28;20038;-75
2022/12/24 19:04:00;;;;;;;14.43;5.78;;;;;;;-144.32;100.00;68061.97;10374480;28;20481;-78
2022/12/24 19:09:02;;;;;;;15.63;6.05;;;;;;;-144.32;100.00;68061.97;10364335;28;20046;-83
2022/12/24 19:14:05;;;;;;;13.50;5.60;;;;;;;-144.32;100.00;68061.97;10370900;28;20401;-80
2022/12/24 19:19:08;;;;;;;19.10;5.70;;;;;;;-144.32;100.00;68061.97;10347332;28;20049;-75
2022/12/24 19:24:09;;;;;;;10.80;5.05;;;;;;;-144.32;100.00;68061.97;10346474;28;20052;-77
2022/12/24 19:29:11;;;;;;;14.55;5.30;;;;;;;-144.32;100.00;68061.97;10357827;28;20570;-78
2022/12/24 19:34:12;;;;;;;13.43;5.47;;;;;;;-144.32;100.00;68061.97;10351985;28;20050;-75
2022/12/24 19:39:13;;;;;;;12.70;5.65;;;;;;;-144.32;100.00;68061.97;10353956;28;20785;-83
2022/12/24 19:44:13;;;;;;;13.25;6.30;;;;;;;-144.32;100.00;68061.97;10363714;28;20054;-77
2022/12/24 19:49:14;;;;;;;11.77;6.30;;;;;;;-144.32;100.00;68061.97;10363222;28;20578;-76
2022/12/24 19:54:14;;;;;;;12.63;6.20;;;;;;;-144.32;100.00;68061.97;10362916;28;20100;-76
2022/12/24 19:59:16;;;;;;;19.65;6.65;;;;;;;-144.32;100.00;68061.97;10358844;28;20543;-76
2022/12/24 20:04:20;;;;;;;13.70;6.22;;;;;;;-144.32;100.00;68061.97;10364722;28;20048;-75
2022/12/24 20:09:21;;;;;;;13.23;6.78;;;;;;;-144.32;100.00;68061.97;10363373;28;20544;-76
2022/12/24 20:14:21;;;;;;;16.00;6.57;;;;;;;-144.32;100.00;68061.97;10354040;28;20069;-76
2022/12/24 20:19:22;;;;;;;9.25;5.78;;;;;;;-144.32;100.00;68061.97;10358039;28;20384;-76
2022/12/24 20:24:23;;;;;;;9.50;5.43;;;;;;;-144.32;100.00;68061.97;10345205;28;20080;-77
2022/12/24 20:29:23;;;;;;;12.13;5.85;;;;;;;-144.32;100.00;68061.97;10346703;28;20042;-78
2022/12/24 20:34:24;;;;;;;13.15;6.30;;;;;;;-144.32;100.00;68061.97;10350656;28;20100;-76
2022/12/24 20:39:24;;;;;;;18.83;6.68;;;;;;;-144.32;100.00;68061.97;10351538;28;20054;-77
2022/12/24 20:44:25;;;;;;;16.88;6.90;;;;;;;-144.32;100.00;68061.97;10344739;28;20050;-77
2022/12/24 20:49:25;;;;;;;14.98;6.50;;;;;;;-144.32;100.00;68061.97;10341869;28;20446;-78
2022/12/24 20:54:26;;;;;;;14.45;7.20;;;;;;;-144.32;100.00;68061.97;10346708;28;20108;-79
2022/12/24 20:59:26;;;;;;;16.65;6.95;;;;;;;-144.32;100.00;68061.97;10352003;28;20049;-77
2022/12/24 21:04:27;;;;;;;16.88;7.57;;;;;;;-144.32;100.00;68061.97;10346007;28;20053;-77
2022/12/24 21:09:27;;;;;;;15.88;7.15;;;;;;;-144.32;100.00;68061.97;10342331;28;20066;-77
2022/12/24 21:14:28;;;;;;;14.68;6.80;;;;;;;-144.32;100.00;68061.97;10357189;28;20072;-79
2022/12/24 21:19:28;;;;;;;15.25;6.20;;;;;;;-144.32;100.00;68061.97;10359499;28;20050;-80
2022/12/24 21:24:29;;;;;;;13.57;6.40;;;;;;;-144.32;100.00;68061.97;10363152;28;20597;-78
2022/12/24 21:29:30;;;;;;;17.05;7.40;;;;;;;-144.32;100.00;68061.97;10358207;28;20042;-77
2022/12/24 21:34:30;;;;;;;10.02;5.68;;;;;;;-144.32;100.00;68061.97;10351264;28;20045;-82
2022/12/24 21:39:31;;;;;;;17.65;7.05;;;;;;;-144.32;100.00;68061.97;10356397;28;20042;-78
2022/12/24 21:44:34;;;;;;;18.75;7.65;;;;;;;-144.32;100.00;68061.97;10362727;28;20049;-79
2022/12/24 21:54:55;;;;;;;15.00;6.65;;;;;;;-144.32;100.00;68061.97;10355837;28;20041;-77
2022/12/24 22:05:17;;;;;;;13.75;7.93;;;;;;;-144.32;100.00;68061.97;10370676;28;20117;-79
2022/12/24 22:15:45;;;;;;;15.05;6.63;;;;;;;-144.32;100.00;68061.97;10349473;28;20760;-76
2022/12/24 22:20:47;;;;;;;13.57;7.03;;;;;;;-144.32;100.00;68061.97;10347637;28;20086;-79
2022/12/24 22:25:47;;;;;;;15.85;8.65;;;;;;;-144.32;100.00;68061.97;10346720;28;20054;-78
2022/12/24 22:30:49;;;;;;;16.08;7.72;;;;;;;-144.32;100.00;68061.97;10348642;28;20065;-78
2022/12/24 22:35:50;;;;;;;12.50;6.60;;;;;;;-144.32;100.00;68061.97;10353577;28;20046;-79
2022/12/24 22:40:51;;;;;;;15.02;7.18;;;;;;;-144.32;100.00;68061.97;10348775;28;20516;-78
2022/12/24 22:45:52;;;;;;;15.15;7.18;;;;;;;-144.32;100.00;68061.97;10351720;28;20053;-79
2022/12/24 22:50:53;;;;;;;13.48;6.82;;;;;;;-144.32;100.00;68061.97;10349684;28;20041;-78
2022/12/24 22:55:57;;;;;;;15.93;7.15;;;;;;;-144.32;100.00;68061.97;10355235;28;20046;-79
2022/12/24 23:00:58;;;;;;;17.35;7.60;;;;;;;-144.32;100.00;68061.97;10359870;28;20074;-78
2022/12/24 23:06:04;;;;;;;16.50;7.65;;;;;;;-144.32;100.00;68061.97;10347724;28;20050;-79
2022/12/24 23:11:14;;;;;;;14.25;7.63;;;;;;;-144.32;100.00;68061.97;10351291;28;20466;-80